Time;durP1;ratioP1;P1;durP2;ratioP2;P2;SDS_P1;SDS_P2;PMS_P1;PMS_P2;Temp;Humidity;BMP_temperature;BMP_pressure;BME280_temperature;BME280_humidity;BME280_pressure;Samples;Min_cycle;Max_cycle;Signal;HPM_P1;HPM_P2
2023/05/23 00:00:36;;;;;;;31.40;15.50;;;13.70;99.90;;;;;;5066553;28;20048;-86
2023/05/23 00:03:03;;;;;;;27.65;15.02;;;13.70;99.90;;;;;;5089633;28;20376;-85
2023/05/23 00:05:29;;;;;;;19.02;12.10;;;13.80;99.90;;;;;;5070521;28;20517;-85
2023/05/23 00:07:54;;;;;;;19.98;12.52;;;13.80;99.90;;;;;;5070009;28;20048;-85
2023/05/23 00:10:21;;;;;;;18.48;12.13;;;13.80;99.90;;;;;;5054196;28;20040;-85
2023/05/23 00:12:47;;;;;;;20.73;12.32;;;13.80;99.90;;;;;;5054141;28;20036;-85
2023/05/23 00:15:13;;;;;;;16.85;12.10;;;13.80;99.90;;;;;;5060593;28;20036;-85
2023/05/23 00:17:38;;;;;;;17.02;11.32;;;13.80;99.90;;;;;;5069901;28;20402;-86
2023/05/23 00:20:08;;;;;;;15.88;11.40;;;13.90;99.90;;;;;;5070249;28;20059;-85
2023/05/23 00:22:35;;;;;;;20.33;11.50;;;13.90;99.90;;;;;;5087894;28;20221;-85
2023/05/23 00:25:02;;;;;;;18.20;11.68;;;13.90;99.90;;;;;;5069818;28;20120;-84
2023/05/23 00:27:27;;;;;;;16.10;11.82;;;13.80;99.90;;;;;;5065511;28;20047;-85
2023/05/23 00:29:53;;;;;;;14.35;10.38;;;13.80;99.90;;;;;;5070869;28;20036;-85
2023/05/23 00:32:18;;;;;;;14.98;9.98;;;13.80;99.90;;;;;;5053640;28;20109;-83
2023/05/23 00:34:44;;;;;;;13.45;10.02;;;13.80;99.90;;;;;;5069231;28;20384;-85
2023/05/23 00:37:10;;;;;;;11.25;9.80;;;13.80;99.90;;;;;;5069924;28;20155;-84
2023/05/23 00:39:36;;;;;;;14.45;10.20;;;14.00;99.90;;;;;;5069721;28;20115;-84
2023/05/23 00:42:05;;;;;;;14.40;10.73;;;13.80;99.90;;;;;;5069765;28;20048;-84
2023/05/23 00:44:31;;;;;;;14.05;11.32;;;13.70;99.90;;;;;;5070044;28;20081;-84
2023/05/23 00:46:57;;;;;;;13.88;11.85;;;13.70;99.90;;;;;;5053453;28;20061;-84
2023/05/23 00:49:26;;;;;;;18.38;12.25;;;13.70;99.90;;;;;;5069261;28;20063;-84
2023/05/23 00:51:52;;;;;;;18.48;12.93;;;13.40;99.90;;;;;;5047774;28;20047;-84
2023/05/23 00:54:23;;;;;;;18.30;12.82;;;13.70;99.90;;;;;;5048014;28;20052;-83
2023/05/23 00:56:49;;;;;;;17.25;11.95;;;13.70;99.90;;;;;;5053386;28;20504;-84
2023/05/23 00:59:15;;;;;;;21.45;13.27;;;13.70;99.90;;;;;;5069466;28;20040;-83
2023/05/23 01:01:43;;;;;;;18.25;11.85;;;13.60;99.90;;;;;;5067639;28;20055;-83
2023/05/23 01:04:08;;;;;;;17.17;11.85;;;13.60;99.90;;;;;;5069703;28;20059;-83
2023/05/23 01:06:35;;;;;;;19.42;13.35;;;13.60;99.90;;;;;;5088034;28;20048;-83
2023/05/23 01:09:02;;;;;;;16.95;11.95;;;13.60;99.90;;;;;;5052524;28;20052;-82
2023/05/23 01:11:42;;;;;;;18.17;11.70;;;13.80;99.90;;;;;;5068960;28;20071;-82
2023/05/23 01:14:17;;;;;;;16.55;12.27;;;13.50;99.90;;;;;;5068337;28;20055;-83
2023/05/23 01:16:52;;;;;;;13.82;11.35;;;13.50;99.90;;;;;;5059709;28;20511;-82
2023/05/23 01:19:39;;;;;;;14.05;11.02;;;13.50;99.90;;;;;;5063034;28;20051;-82
2023/05/23 01:22:14;;;;;;;15.02;12.02;;;13.50;99.90;;;;;;5068534;28;20050;-82
2023/05/23 01:24:46;;;;;;;17.58;11.80;;;13.50;99.90;;;;;;5068132;28;20040;-83
2023/05/23 01:27:23;;;;;;;15.63;12.73;;;13.50;99.90;;;;;;5067065;28;20419;-82
2023/05/23 01:29:56;;;;;;;15.68;11.10;;;13.50;99.90;;;;;;5069410;28;20047;-82
2023/05/23 01:32:25;;;;;;;16.23;12.88;;;13.70;99.90;;;;;;5084876;28;20205;-83
2023/05/23 01:34:55;;;;;;;19.85;12.63;;;13.50;99.90;;;;;;5069431;28;20055;-83
2023/05/23 01:37:20;;;;;;;11.88;8.75;;;13.40;99.90;;;;;;5085779;28;20092;-83
2023/05/23 01:39:46;;;;;;;15.02;12.13;;;13.50;99.90;;;;;;5066165;28;20051;-82
2023/05/23 01:42:12;;;;;;;14.57;10.98;;;13.50;99.90;;;;;;5085871;28;20118;-82
2023/05/23 01:44:39;;;;;;;15.27;11.55;;;13.40;99.90;;;;;;5086147;28;20048;-83
2023/05/23 01:47:07;;;;;;;15.07;10.95;;;13.40;99.90;;;;;;5065272;28;20071;-83
2023/05/23 01:49:34;;;;;;;13.73;11.20;;;13.40;99.90;;;;;;5058825;28;20064;-83
2023/05/23 01:52:01;;;;;;;16.75;10.93;;;13.40;99.90;;;;;;5065428;28;20044;-83
2023/05/23 01:54:28;;;;;;;14.90;11.18;;;13.60;99.90;;;;;;5064629;28;20048;-83
2023/05/23 01:56:56;;;;;;;14.02;10.60;;;13.50;99.90;;;;;;5063900;28;20052;-83
2023/05/23 01:59:22;;;;;;;16.10;10.63;;;13.50;99.90;;;;;;5062220;28;20047;-83
2023/05/23 02:01:48;;;;;;;13.15;9.93;;;13.60;99.90;;;;;;5064849;28;20101;-83
2023/05/23 02:04:15;;;;;;;11.52;9.10;;;13.50;99.90;;;;;;5065685;28;20048;-82
2023/05/23 02:06:41;;;;;;;11.77;8.93;;;13.50;99.90;;;;;;5067135;28;20054;-82
2023/05/23 02:09:07;;;;;;;14.60;8.73;;;13.50;99.90;;;;;;5047995;28;20679;-82
2023/05/23 02:11:33;;;;;;;16.23;10.07;;;13.40;99.90;;;;;;5065519;28;20036;-83
2023/05/23 02:13:58;;;;;;;19.65;9.75;;;13.30;99.90;;;;;;5065022;28;20181;-83
2023/05/23 02:16:25;;;;;;;13.07;7.35;;;13.30;99.90;;;;;;5065683;28;20040;-82
2023/05/23 02:18:52;;;;;;;17.85;9.05;;;13.20;99.90;;;;;;5064648;28;20363;-82
2023/05/23 02:21:17;;;;;;;15.63;9.05;;;13.50;99.90;;;;;;5047111;28;20083;-82
2023/05/23 02:23:43;;;;;;;15.30;9.02;;;13.20;99.90;;;;;;5064927;28;20133;-83
2023/05/23 02:26:09;;;;;;;12.88;9.20;;;13.20;99.90;;;;;;5064247;28;20048;-83
2023/05/23 02:28:34;;;;;;;21.48;10.52;;;13.10;99.90;;;;;;5065621;28;20048;-83
2023/05/23 02:31:01;;;;;;;23.30;10.55;;;13.10;99.90;;;;;;5064378;28;20036;-82
2023/05/23 02:33:26;;;;;;;18.98;10.48;;;13.00;99.90;;;;;;5065664;28;20089;-82
2023/05/23 02:35:54;;;;;;;19.02;10.48;;;13.00;99.90;;;;;;5064518;28;20033;-82
2023/05/23 02:38:19;;;;;;;16.92;9.77;;;12.90;99.90;;;;;;5064492;28;20596;-83
2023/05/23 02:40:45;;;;;;;29.70;9.93;;;12.90;99.90;;;;;;5064367;28;20040;-82
2023/05/23 02:43:11;;;;;;;17.88;10.07;;;12.90;99.90;;;;;;5066959;28;20182;-82
2023/05/23 02:45:36;;;;;;;16.58;9.05;;;12.80;99.90;;;;;;5068205;28;20048;-83
2023/05/23 02:48:02;;;;;;;13.63;8.32;;;12.80;99.90;;;;;;5068679;28;20491;-82
2023/05/23 02:50:27;;;;;;;14.77;9.23;;;12.80;99.90;;;;;;5068221;28;20052;-83
2023/05/23 02:52:53;;;;;;;14.20;8.63;;;12.80;99.90;;;;;;5069465;28;20044;-82
2023/05/23 02:55:19;;;;;;;17.15;8.75;;;12.80;99.90;;;;;;5050433;28;20099;-82
2023/05/23 02:57:44;;;;;;;17.92;8.65;;;12.80;99.90;;;;;;5067887;28;20075;-82
2023/05/23 03:00:11;;;;;;;9.10;6.68;;;12.80;99.90;;;;;;5068578;28;20033;-82
2023/05/23 03:02:36;;;;;;;13.55;8.02;;;12.70;99.90;;;;;;5067146;28;20056;-82
2023/05/23 03:05:02;;;;;;;14.00;8.05;;;12.60;99.90;;;;;;5069015;28;20036;-82
2023/05/23 03:07:29;;;;;;;11.68;7.05;;;12.60;99.90;;;;;;5067646;28;20057;-82
2023/05/23 03:09:55;;;;;;;18.35;8.52;;;12.60;99.90;;;;;;5037124;28;20052;-82
2023/05/23 03:12:20;;;;;;;14.25;8.63;;;12.50;99.90;;;;;;5059782;28;20040;-83
2023/05/23 03:14:46;;;;;;;17.13;8.43;;;12.50;99.90;;;;;;5068359;28;20040;-83
2023/05/23 03:17:13;;;;;;;14.00;7.63;;;12.50;99.90;;;;;;5069836;28;20041;-83
2023/05/23 03:19:38;;;;;;;15.93;8.20;;;12.50;99.90;;;;;;5067271;28;20152;-83
2023/05/23 03:22:04;;;;;;;16.50;7.97;;;12.40;99.90;;;;;;5066424;28;20201;-83
2023/05/23 03:24:30;;;;;;;15.88;7.68;;;12.50;99.90;;;;;;5065527;28;20098;-82
2023/05/23 03:26:56;;;;;;;18.42;7.05;;;12.40;99.90;;;;;;5067706;28;20060;-83
2023/05/23 03:29:22;;;;;;;16.05;7.63;;;12.40;99.90;;;;;;5063559;28;20071;-83
2023/05/23 03:31:47;;;;;;;18.17;7.22;;;12.40;99.90;;;;;;5066946;28;20101;-83
2023/05/23 03:34:13;;;;;;;17.10;6.78;;;12.30;99.90;;;;;;5067716;28;20052;-83
2023/05/23 03:36:39;;;;;;;16.65;7.80;;;12.30;99.90;;;;;;5068286;28;20474;-83
2023/05/23 03:39:05;;;;;;;22.85;8.90;;;12.30;99.90;;;;;;5066171;28;20048;-83
2023/05/23 03:41:30;;;;;;;19.00;7.18;;;12.30;99.90;;;;;;5051677;28;20040;-83
2023/05/23 03:43:56;;;;;;;19.55;8.23;;;12.30;99.90;;;;;;5049146;28;20078;-83
2023/05/23 03:46:22;;;;;;;15.60;7.05;;;12.40;99.90;;;;;;5067240;28;20040;-83
2023/05/23 03:48:48;;;;;;;15.70;7.55;;;12.30;99.90;;;;;;5066621;28;20056;-83
2023/05/23 03:51:13;;;;;;;17.05;7.15;;;12.30;99.90;;;;;;5065109;28;20201;-84
2023/05/23 03:53:39;;;;;;;12.52;6.55;;;12.30;99.90;;;;;;5066658;28;20372;-83
2023/05/23 03:56:05;;;;;;;17.55;7.28;;;12.30;99.90;;;;;;5066271;28;20051;-83
2023/05/23 03:58:30;;;;;;;18.90;7.75;;;12.30;99.90;;;;;;5067664;28;20037;-83
2023/05/23 04:00:56;;;;;;;14.43;6.85;;;12.30;99.90;;;;;;5066567;28;20379;-84
2023/05/23 04:03:22;;;;;;;15.43;6.53;;;12.30;99.90;;;;;;5065851;28;20051;-83
2023/05/23 04:05:48;;;;;;;14.00;6.47;;;12.30;99.90;;;;;;5066941;28;20127;-83
2023/05/23 04:08:14;;;;;;;17.02;8.50;;;12.30;99.90;;;;;;5066999;28;20090;-82
2023/05/23 04:10:40;;;;;;;17.30;7.10;;;12.30;99.90;;;;;;5049762;28;20082;-83
2023/05/23 04:13:05;;;;;;;12.00;5.57;;;12.30;99.90;;;;;;5067717;28;20136;-83
2023/05/23 04:15:33;;;;;;;16.92;6.70;;;12.30;99.90;;;;;;5067021;28;20072;-83
2023/05/23 04:17:59;;;;;;;12.38;5.50;;;12.10;99.90;;;;;;5065944;28;20072;-82
2023/05/23 04:20:24;;;;;;;11.88;5.45;;;12.30;99.90;;;;;;5067831;28;20523;-82
2023/05/23 04:22:50;;;;;;;15.43;5.82;;;12.30;99.90;;;;;;5066941;28;20059;-82
2023/05/23 04:25:17;;;;;;;13.82;5.75;;;12.30;99.90;;;;;;5053927;28;20049;-83
2023/05/23 04:27:43;;;;;;;12.27;5.93;;;12.30;99.90;;;;;;5063447;28;20450;-83
2023/05/23 04:30:10;;;;;;;16.05;5.40;;;12.30;99.90;;;;;;5065476;28;20144;-83
2023/05/23 04:32:37;;;;;;;11.73;4.72;;;12.20;99.90;;;;;;5067097;28;20051;-83
2023/05/23 04:35:03;;;;;;;11.10;5.20;;;12.30;99.90;;;;;;5066746;28;20517;-83
2023/05/23 04:37:31;;;;;;;10.13;5.38;;;12.30;99.90;;;;;;5065482;28;20086;-83
2023/05/23 04:39:58;;;;;;;11.38;4.85;;;12.30;99.90;;;;;;5063449;28;20110;-83
2023/05/23 04:42:24;;;;;;;16.45;5.45;;;12.30;99.90;;;;;;5065617;28;20505;-84
2023/05/23 04:44:51;;;;;;;8.98;4.05;;;12.20;99.90;;;;;;5067327;28;20045;-84
2023/05/23 04:47:18;;;;;;;13.43;5.50;;;12.20;99.90;;;;;;5066067;28;20064;-83
2023/05/23 04:49:43;;;;;;;8.88;4.22;;;12.20;99.90;;;;;;5066794;28;20044;-83
2023/05/23 04:52:09;;;;;;;8.93;4.97;;;12.10;99.90;;;;;;5065853;28;20503;-84
2023/05/23 04:54:36;;;;;;;11.13;5.00;;;12.10;99.90;;;;;;5049337;28;20072;-84
2023/05/23 04:57:02;;;;;;;11.82;4.90;;;12.10;99.90;;;;;;5063111;28;20098;-83
2023/05/23 04:59:27;;;;;;;13.95;5.05;;;12.10;99.90;;;;;;5065193;28;20037;-84
2023/05/23 05:01:53;;;;;;;11.07;5.05;;;12.10;99.90;;;;;;5066932;28;20764;-85
2023/05/23 05:04:19;;;;;;;9.00;4.22;;;12.10;99.90;;;;;;5066290;28;20801;-83
2023/05/23 05:06:46;;;;;;;12.68;5.15;;;12.00;99.90;;;;;;5065185;28;20068;-85
2023/05/23 05:09:12;;;;;;;9.57;5.53;;;12.00;99.90;;;;;;5041702;28;20458;-84
2023/05/23 05:11:38;;;;;;;11.48;5.82;;;12.00;99.90;;;;;;5063374;28;20455;-84
2023/05/23 05:14:03;;;;;;;11.95;4.45;;;12.00;99.90;;;;;;5049293;28;20056;-84
2023/05/23 05:16:29;;;;;;;12.32;4.57;;;12.00;99.90;;;;;;5065991;28;20050;-84
2023/05/23 05:18:56;;;;;;;12.07;4.68;;;12.00;99.90;;;;;;5049533;28;20048;-84
2023/05/23 05:21:21;;;;;;;14.60;5.10;;;12.00;99.90;;;;;;5066295;28;20056;-84
2023/05/23 05:23:47;;;;;;;8.80;4.50;;;12.10;99.90;;;;;;5064567;28;20780;-84
2023/05/23 05:26:12;;;;;;;11.35;4.53;;;12.10;99.90;;;;;;5058721;28;20411;-86
2023/05/23 05:28:38;;;;;;;10.35;4.88;;;12.00;99.90;;;;;;5065015;28;20044;-83
2023/05/23 05:31:04;;;;;;;11.95;5.15;;;12.00;99.90;;;;;;5064251;28;20454;-84
2023/05/23 05:33:34;;;;;;;10.70;4.43;;;12.00;99.90;;;;;;5048154;28;20131;-85
2023/05/23 05:36:05;;;;;;;11.50;5.30;;;12.00;99.90;;;;;;5063769;28;20052;-85
2023/05/23 05:38:31;;;;;;;13.50;5.97;;;12.10;99.90;;;;;;5048784;28;20110;-85
2023/05/23 05:40:56;;;;;;;12.52;5.97;;;12.10;99.90;;;;;;5055738;28;20469;-84
2023/05/23 05:43:22;;;;;;;8.23;4.70;;;12.00;99.90;;;;;;5066132;28;20536;-84
2023/05/23 05:45:48;;;;;;;12.60;5.93;;;11.70;99.90;;;;;;5063097;28;20136;-86
2023/05/23 05:48:13;;;;;;;15.05;6.30;;;11.90;99.90;;;;;;5073653;28;20049;-85
2023/05/23 05:50:39;;;;;;;14.10;5.95;;;11.90;99.90;;;;;;5049776;28;20059;-86
2023/05/23 05:53:06;;;;;;;15.60;6.80;;;11.80;99.90;;;;;;5066349;28;20047;-85
2023/05/23 05:55:33;;;;;;;15.88;6.35;;;11.80;99.90;;;;;;5067275;28;20044;-86
2023/05/23 05:57:59;;;;;;;15.52;6.72;;;11.80;99.90;;;;;;5065665;28;20048;-86
2023/05/23 06:00:24;;;;;;;14.98;5.80;;;11.70;99.90;;;;;;5065986;28;20071;-86
2023/05/23 06:02:50;;;;;;;15.00;5.75;;;11.80;99.90;;;;;;5050042;28;20048;-86
2023/05/23 06:05:16;;;;;;;15.70;5.30;;;11.60;99.90;;;;;;5064892;28;20525;-85
2023/05/23 06:07:43;;;;;;;8.98;5.18;;;11.60;99.90;;;;;;5066151;28;20056;-87
2023/05/23 06:10:11;;;;;;;12.60;5.93;;;11.50;99.90;;;;;;5049947;28;20053;-86
2023/05/23 06:12:37;;;;;;;8.88;5.05;;;11.50;99.90;;;;;;5066826;28;20532;-85
2023/05/23 06:15:04;;;;;;;11.02;5.13;;;11.60;99.90;;;;;;5065759;28;20041;-84
2023/05/23 06:17:32;;;;;;;12.77;5.50;;;11.60;99.90;;;;;;5066207;28;20395;-84
2023/05/23 06:19:58;;;;;;;9.75;5.47;;;11.50;99.90;;;;;;5070014;28;20051;-85
2023/05/23 06:22:23;;;;;;;8.27;4.10;;;11.60;99.90;;;;;;5069804;28;20044;-84
2023/05/23 06:24:49;;;;;;;11.73;4.43;;;11.60;99.90;;;;;;5069701;28;20040;-85
2023/05/23 06:27:15;;;;;;;12.50;4.85;;;11.60;99.90;;;;;;5069980;28;20070;-86
2023/05/23 06:29:40;;;;;;;9.55;4.10;;;11.50;99.90;;;;;;5070115;28;20086;-85
2023/05/23 06:32:06;;;;;;;14.77;4.57;;;11.50;99.90;;;;;;5051374;28;20041;-85
2023/05/23 06:34:32;;;;;;;9.75;4.80;;;11.50;99.90;;;;;;5049616;28;20075;-85
2023/05/23 06:36:57;;;;;;;8.65;4.43;;;11.50;99.90;;;;;;5068427;28;20071;-85
2023/05/23 06:39:24;;;;;;;8.90;4.40;;;11.50;99.90;;;;;;5068569;28;20037;-85
2023/05/23 06:41:50;;;;;;;12.38;4.55;;;11.60;99.90;;;;;;5049221;28;20045;-85
2023/05/23 06:44:15;;;;;;;8.45;4.18;;;11.60;99.90;;;;;;5049144;28;20503;-85
2023/05/23 06:46:45;;;;;;;7.65;3.97;;;11.60;99.90;;;;;;5068217;28;20049;-85
2023/05/23 06:49:11;;;;;;;7.85;3.95;;;11.60;99.90;;;;;;5068783;28;20414;-84
2023/05/23 06:51:36;;;;;;;9.00;4.18;;;11.60;99.90;;;;;;5088664;28;20470;-84
2023/05/23 06:54:02;;;;;;;6.32;3.70;;;11.70;99.90;;;;;;5071705;28;20042;-87
2023/05/23 06:56:28;;;;;;;7.78;3.47;;;11.70;99.90;;;;;;5067482;28;20045;-86
2023/05/23 06:58:55;;;;;;;9.27;3.72;;;11.80;99.90;;;;;;5092123;28;20478;-86
2023/05/23 07:01:20;;;;;;;13.35;3.50;;;11.80;99.90;;;;;;5071669;28;20127;-86
2023/05/23 07:03:46;;;;;;;10.98;3.70;;;11.70;99.90;;;;;;5070925;28;20036;-84
2023/05/23 07:06:12;;;;;;;9.95;3.75;;;11.80;99.90;;;;;;5071829;28;20044;-85
2023/05/23 07:08:38;;;;;;;9.38;2.92;;;11.80;99.90;;;;;;5070558;28;20105;-84
2023/05/23 07:11:05;;;;;;;10.70;2.92;;;11.90;99.90;;;;;;5090432;28;20044;-86
2023/05/23 07:13:31;;;;;;;8.05;2.97;;;12.00;99.90;;;;;;5072418;28;20123;-84
2023/05/23 07:15:57;;;;;;;8.77;3.15;;;12.10;99.90;;;;;;5072107;28;20138;-86
2023/05/23 07:18:23;;;;;;;7.22;3.28;;;12.20;99.90;;;;;;5055659;28;20487;-86
2023/05/23 07:20:48;;;;;;;8.55;3.65;;;12.30;99.90;;;;;;5071581;28;20040;-85
2023/05/23 07:23:14;;;;;;;12.20;3.50;;;12.40;99.90;;;;;;5071365;28;20801;-86
2023/05/23 07:25:41;;;;;;;7.65;3.00;;;12.50;99.90;;;;;;5055476;28;20889;-86
2023/05/23 07:28:10;;;;;;;11.40;3.60;;;12.80;99.90;;;;;;5072112;28;20155;-87
2023/05/23 07:30:37;;;;;;;12.20;3.45;;;12.90;99.90;;;;;;5071829;28;20047;-87
2023/05/23 07:33:02;;;;;;;10.00;3.17;;;13.40;99.90;;;;;;5071705;28;20662;-87
2023/05/23 07:35:28;;;;;;;8.27;3.33;;;13.40;99.90;;;;;;5070791;28;20046;-87
2023/05/23 07:37:54;;;;;;;12.75;3.38;;;13.60;99.90;;;;;;5070358;28;20050;-87
2023/05/23 07:40:21;;;;;;;13.07;3.58;;;13.80;99.90;;;;;;5071076;28;20753;-87
2023/05/23 07:42:47;;;;;;;15.20;3.60;;;13.90;99.90;;;;;;5070308;28;20371;-87
2023/05/23 07:45:12;;;;;;;9.40;3.55;;;13.80;99.90;;;;;;5053673;28;20050;-87
2023/05/23 07:47:39;;;;;;;12.10;3.53;;;13.70;99.90;;;;;;5053236;28;20067;-86
2023/05/23 07:50:05;;;;;;;10.95;3.67;;;13.50;99.90;;;;;;5071487;28;20047;-86
2023/05/23 07:52:31;;;;;;;9.13;3.28;;;13.20;99.90;;;;;;5089834;28;20044;-87
2023/05/23 07:54:57;;;;;;;13.88;3.88;;;13.30;99.90;;;;;;5071664;28;20055;-86
2023/05/23 07:57:25;;;;;;;12.52;3.42;;;13.20;99.90;;;;;;5072073;28;20040;-87
2023/05/23 07:59:52;;;;;;;7.95;2.92;;;13.20;99.90;;;;;;5055565;28;20044;-87
2023/05/23 08:02:18;;;;;;;11.52;2.95;;;13.30;99.90;;;;;;5070699;28;20170;-87
2023/05/23 08:04:44;;;;;;;10.50;3.67;;;13.30;99.90;;;;;;5055455;28;20486;-87
2023/05/23 08:07:10;;;;;;;13.98;3.25;;;13.30;99.90;;;;;;5055090;28;20044;-87
2023/05/23 08:09:37;;;;;;;6.80;2.63;;;13.20;99.90;;;;;;5069078;28;20059;-86
2023/05/23 08:12:02;;;;;;;9.25;3.17;;;13.20;99.90;;;;;;5071992;28;20165;-86
2023/05/23 08:14:28;;;;;;;9.95;3.13;;;13.30;99.90;;;;;;5071637;28;20135;-82
2023/05/23 08:16:54;;;;;;;13.10;3.42;;;13.30;99.90;;;;;;5089888;28;20047;-84
2023/05/23 08:19:19;;;;;;;8.70;2.58;;;13.30;99.90;;;;;;5052803;28;20040;-85
2023/05/23 08:21:46;;;;;;;11.20;3.08;;;13.30;99.90;;;;;;5088667;28;20051;-86
2023/05/23 08:24:12;;;;;;;12.07;3.00;;;13.30;99.90;;;;;;5051278;28;20437;-86
2023/05/23 08:26:38;;;;;;;16.02;3.47;;;13.40;99.90;;;;;;5071620;28;20066;-85
2023/05/23 08:29:04;;;;;;;12.48;3.08;;;13.60;99.90;;;;;;5081202;28;20047;-86
2023/05/23 08:31:31;;;;;;;14.05;2.80;;;13.70;99.90;;;;;;5071692;28;20047;-86
2023/05/23 08:33:59;;;;;;;13.00;3.13;;;14.00;99.90;;;;;;5086680;28;20147;-84
2023/05/23 08:36:24;;;;;;;10.35;3.05;;;14.00;99.90;;;;;;5087886;28;20043;-85
2023/05/23 08:38:51;;;;;;;11.50;2.83;;;14.10;99.90;;;;;;5066381;28;20052;-86
2023/05/23 08:41:21;;;;;;;12.23;3.00;;;14.30;99.90;;;;;;5057417;28;20070;-84
2023/05/23 08:43:47;;;;;;;12.48;3.22;;;14.30;99.90;;;;;;5089009;28;20189;-84
2023/05/23 08:46:13;;;;;;;10.45;3.67;;;14.40;99.90;;;;;;5089062;28;20537;-85
2023/05/23 08:48:41;;;;;;;9.07;2.70;;;14.60;99.90;;;;;;5070634;28;20055;-86
2023/05/23 08:51:12;;;;;;;10.55;3.25;;;14.80;99.90;;;;;;5070134;28;20566;-84
2023/05/23 08:53:41;;;;;;;11.15;3.22;;;14.90;99.90;;;;;;5088177;28;20109;-84
2023/05/23 08:56:08;;;;;;;7.70;3.13;;;15.00;99.90;;;;;;5069385;28;20089;-84
2023/05/23 08:58:34;;;;;;;9.45;2.85;;;15.20;99.90;;;;;;5065919;28;20040;-86
2023/05/23 09:01:00;;;;;;;10.65;3.65;;;15.50;99.90;;;;;;5067797;28;20059;-86
2023/05/23 09:03:26;;;;;;;8.95;2.95;;;15.70;99.90;;;;;;5088148;28;20048;-86
2023/05/23 09:05:56;;;;;;;9.02;2.65;;;15.80;99.90;;;;;;5088508;28;20159;-85
2023/05/23 09:08:26;;;;;;;9.60;3.33;;;15.80;99.90;;;;;;5068948;28;20052;-85
2023/05/23 09:10:52;;;;;;;12.82;3.33;;;15.60;99.90;;;;;;5088737;28;20040;-86
2023/05/23 09:13:19;;;;;;;11.25;3.92;;;15.60;99.90;;;;;;5087017;28;20352;-85
2023/05/23 09:16:02;;;;;;;9.52;3.42;;;15.50;99.90;;;;;;5085525;28;20141;-85
2023/05/23 09:18:41;;;;;;;10.52;3.15;;;15.20;99.90;;;;;;5068271;28;20044;-85
2023/05/23 09:21:09;;;;;;;10.70;3.45;;;15.10;99.90;;;;;;5088922;28;20118;-86
2023/05/23 09:23:36;;;;;;;8.77;2.92;;;15.30;99.90;;;;;;5068175;28;20048;-85
2023/05/23 09:26:10;;;;;;;9.73;2.88;;;15.40;99.90;;;;;;5088310;28;20119;-84
2023/05/23 09:28:38;;;;;;;9.45;3.30;;;15.60;99.90;;;;;;5088001;28;20040;-86
2023/05/23 09:31:07;;;;;;;11.98;3.25;;;15.70;99.90;;;;;;5087385;28;20050;-83
2023/05/23 09:33:48;;;;;;;13.00;3.88;;;15.70;99.90;;;;;;5087689;28;20065;-85
2023/05/23 09:36:14;;;;;;;9.38;3.47;;;15.60;99.90;;;;;;5088248;28;20070;-85
2023/05/23 09:38:41;;;;;;;12.52;3.30;;;15.50;99.90;;;;;;5087001;28;20044;-84
2023/05/23 09:41:07;;;;;;;13.45;3.40;;;15.50;99.90;;;;;;5086739;28;20127;-85
2023/05/23 09:43:33;;;;;;;12.15;4.07;;;15.40;99.90;;;;;;5086828;28;20505;-83
2023/05/23 09:46:12;;;;;;;14.10;3.38;;;15.30;99.90;;;;;;5088576;28;20044;-85
2023/05/23 09:48:38;;;;;;;10.90;3.38;;;15.10;98.50;;;;;;5086972;28;20044;-83
2023/05/23 09:51:08;;;;;;;7.60;2.97;;;15.10;99.90;;;;;;5087312;28;20051;-86
2023/05/23 09:53:34;;;;;;;10.27;3.20;;;15.10;99.90;;;;;;5068692;28;20060;-85
2023/05/23 09:56:01;;;;;;;9.60;2.70;;;15.00;99.90;;;;;;5087878;28;20096;-83
2023/05/23 09:58:30;;;;;;;13.18;3.05;;;14.90;99.90;;;;;;5051406;28;20066;-86
2023/05/23 10:00:57;;;;;;;12.45;3.53;;;14.80;99.90;;;;;;5052594;28;20048;-85
2023/05/23 10:03:50;;;;;;;12.82;3.15;;;14.90;99.90;;;;;;5069197;28;20051;-86
2023/05/23 10:06:25;;;;;;;8.50;2.72;;;15.00;99.00;;;;;;5066094;28;20048;-84
2023/05/23 10:09:02;;;;;;;11.40;3.03;;;15.00;97.70;;;;;;5060252;28;20059;-86
2023/05/23 10:11:34;;;;;;;11.88;3.05;;;15.10;99.90;;;;;;5068717;28;20079;-86
2023/05/23 10:14:08;;;;;;;8.95;3.47;;;15.20;98.50;;;;;;5068542;28;20501;-87
2023/05/23 10:17:01;;;;;;;14.70;3.78;;;15.30;99.20;;;;;;5069299;28;20076;-86
2023/05/23 10:19:37;;;;;;;9.48;2.72;;;15.50;96.90;;;;;;5069156;28;20481;-85
2023/05/23 10:22:07;;;;;;;10.10;3.10;;;15.50;96.40;;;;;;5051731;28;20036;-86
2023/05/23 10:24:34;;;;;;;12.65;3.38;;;16.10;98.00;;;;;;5065353;28;20067;-84
2023/05/23 10:27:01;;;;;;;8.30;2.58;;;15.90;98.20;;;;;;5085896;28;20394;-84
2023/05/23 10:29:28;;;;;;;8.27;2.85;;;16.30;97.40;;;;;;5067014;28;20127;-86
2023/05/23 10:31:55;;;;;;;9.10;3.00;;;16.70;96.00;;;;;;5070193;28;20063;-85
2023/05/23 10:34:36;;;;;;;13.85;2.95;;;16.60;95.40;;;;;;5086828;28;20135;-84
2023/05/23 10:37:03;;;;;;;9.32;3.13;;;16.80;89.30;;;;;;5086414;28;20048;-85
2023/05/23 10:39:54;;;;;;;8.68;2.60;;;16.20;91.90;;;;;;5068920;28;20048;-86
2023/05/23 10:42:43;;;;;;;12.82;3.65;;;16.00;90.40;;;;;;5087121;28;20047;-83
2023/05/23 10:45:19;;;;;;;7.68;2.88;;;15.70;89.60;;;;;;5062189;28;20605;-84
2023/05/23 10:47:52;;;;;;;9.60;2.97;;;15.80;92.70;;;;;;5046840;28;20377;-87
2023/05/23 10:50:32;;;;;;;8.07;2.42;;;15.80;92.90;;;;;;5061731;28;20072;-86
2023/05/23 10:53:00;;;;;;;9.35;3.08;;;15.80;90.10;;;;;;5028829;28;20411;-87
2023/05/23 10:55:31;;;;;;;6.78;2.58;;;15.70;94.20;;;;;;5044201;28;20037;-85
2023/05/23 10:58:21;;;;;;;11.70;2.50;;;16.00;90.70;;;;;;5044300;28;20041;-86
2023/05/23 11:01:12;;;;;;;7.45;2.53;;;16.00;90.90;;;;;;5048235;28;20040;-86
2023/05/23 11:03:46;;;;;;;8.02;2.53;;;15.80;92.40;;;;;;5047604;28;20745;-86
2023/05/23 11:06:43;;;;;;;10.00;2.72;;;16.10;91.40;;;;;;5069836;28;20386;-85
2023/05/23 11:09:19;;;;;;;7.97;2.13;;;15.80;85.20;;;;;;5067580;28;20870;-86
2023/05/23 11:11:56;;;;;;;7.07;1.85;;;16.10;92.50;;;;;;5068953;28;20524;-86
2023/05/23 11:14:31;;;;;;;5.82;2.20;;;16.30;91.00;;;;;;5051379;28;20385;-86
2023/05/23 11:16:58;;;;;;;6.15;2.10;;;16.40;91.30;;;;;;5067523;28;20080;-86
2023/05/23 11:19:27;;;;;;;7.47;2.50;;;16.40;91.90;;;;;;5066381;28;20106;-87
2023/05/23 11:22:06;;;;;;;5.45;2.38;;;16.50;91.40;;;;;;5067984;28;20051;-86
2023/05/23 11:24:55;;;;;;;7.40;2.35;;;16.70;82.80;;;;;;5051036;28;20170;-87
2023/05/23 11:27:35;;;;;;;6.88;2.55;;;16.60;81.60;;;;;;5068320;28;20756;-87
2023/05/23 11:30:12;;;;;;;7.75;2.85;;;16.70;87.40;;;;;;5068637;28;20426;-86
2023/05/23 11:32:38;;;;;;;7.55;2.42;;;16.60;80.70;;;;;;5069140;28;20103;-86
2023/05/23 11:35:10;;;;;;;6.78;2.40;;;16.70;87.50;;;;;;5069042;28;20045;-85
2023/05/23 11:37:37;;;;;;;9.50;2.92;;;16.60;80.50;;;;;;5067878;28;20044;-87
2023/05/23 11:40:25;;;;;;;7.45;2.05;;;16.30;84.00;;;;;;5068215;28;20045;-86
2023/05/23 11:42:51;;;;;;;6.05;2.30;;;16.30;78.10;;;;;;5068488;28;20056;-87
2023/05/23 11:45:22;;;;;;;8.55;2.30;;;16.30;84.90;;;;;;5068741;28;20040;-86
2023/05/23 11:47:47;;;;;;;8.43;2.47;;;16.40;83.50;;;;;;5079805;28;20056;-86
2023/05/23 11:50:14;;;;;;;8.70;2.75;;;16.50;84.80;;;;;;5090537;28;20803;-86
2023/05/23 11:52:41;;;;;;;10.93;2.65;;;16.60;84.60;;;;;;5054888;28;20525;-84
2023/05/23 11:55:08;;;;;;;8.63;2.10;;;16.50;84.30;;;;;;5071127;28;20039;-84
2023/05/23 11:57:37;;;;;;;8.93;2.47;;;16.40;83.90;;;;;;5071908;28;20071;-86
2023/05/23 12:00:06;;;;;;;13.02;2.72;;;16.10;85.00;;;;;;5071722;28;20098;-87
2023/05/23 12:02:38;;;;;;;11.15;2.63;;;16.20;86.30;;;;;;5071898;28;20131;-86
2023/05/23 12:05:14;;;;;;;9.95;2.80;;;16.30;86.90;;;;;;5071125;28;20052;-85
2023/05/23 12:07:49;;;;;;;10.15;2.53;;;16.40;86.40;;;;;;5071024;28;20402;-85
2023/05/23 12:10:16;;;;;;;7.28;3.17;;;16.40;86.40;;;;;;5072096;28;20040;-86
2023/05/23 12:12:42;;;;;;;7.68;2.15;;;16.40;85.30;;;;;;5070771;28;20075;-84
2023/05/23 12:15:11;;;;;;;5.68;1.85;;;16.70;83.80;;;;;;5089153;28;20052;-87
2023/05/23 12:17:38;;;;;;;5.75;2.08;;;16.60;83.80;;;;;;5070473;28;20051;-87
2023/05/23 12:20:07;;;;;;;7.75;2.05;;;16.50;83.50;;;;;;5071047;28;20097;-84
2023/05/23 12:22:33;;;;;;;10.18;2.58;;;16.50;79.80;;;;;;5070285;28;20467;-86
2023/05/23 12:24:59;;;;;;;9.55;2.33;;;16.50;83.20;;;;;;5071025;28;20131;-86
2023/05/23 12:27:29;;;;;;;8.63;3.10;;;16.80;83.80;;;;;;5070949;28;20093;-87
2023/05/23 12:30:15;;;;;;;10.23;2.85;;;16.40;83.70;;;;;;5070623;28;20078;-87
2023/05/23 12:32:42;;;;;;;9.45;2.42;;;16.30;80.80;;;;;;5070624;28;20048;-86
2023/05/23 12:35:11;;;;;;;5.40;2.22;;;16.10;83.90;;;;;;5070593;28;20402;-86
2023/05/23 12:37:41;;;;;;;8.00;2.67;;;16.20;82.60;;;;;;5070853;28;20048;-86
2023/05/23 12:40:16;;;;;;;8.63;2.40;;;16.50;81.30;;;;;;5070095;28;20051;-86
2023/05/23 12:42:52;;;;;;;6.03;2.13;;;16.60;81.20;;;;;;5071043;28;20056;-86